sensor_id;sensor_type;location;lat;lon;timestamp;temperature;humidity
52709;DHT22;38606;52.986;6.980;2023-09-18T00:00:03;17.20;99.90
52709;DHT22;38606;52.986;6.980;2023-09-18T00:02:37;17.10;99.90
52709;DHT22;38606;52.986;6.980;2023-09-18T00:05:03;17.20;99.90
52709;DHT22;38606;52.986;6.980;2023-09-18T00:07:29;17.20;99.90
52709;DHT22;38606;52.986;6.980;2023-09-18T00:09:55;17.30;99.90
52709;DHT22;38606;52.986;6.980;2023-09-18T00:12:21;17.30;99.90
52709;DHT22;38606;52.986;6.980;2023-09-18T00:14:50;17.10;99.90
52709;DHT22;38606;52.986;6.980;2023-09-18T00:17:16;17.20;99.90
52709;DHT22;38606;52.986;6.980;2023-09-18T00:19:43;17.30;99.90
52709;DHT22;38606;52.986;6.980;2023-09-18T00:22:09;17.10;99.90
52709;DHT22;38606;52.986;6.980;2023-09-18T00:24:34;17.10;99.90
52709;DHT22;38606;52.986;6.980;2023-09-18T00:27:00;16.80;99.90
52709;DHT22;38606;52.986;6.980;2023-09-18T00:29:26;17.30;99.90
52709;DHT22;38606;52.986;6.980;2023-09-18T00:31:51;17.00;99.90
52709;DHT22;38606;52.986;6.980;2023-09-18T00:34:17;17.00;99.90
52709;DHT22;38606;52.986;6.980;2023-09-18T00:36:43;17.00;99.90
52709;DHT22;38606;52.986;6.980;2023-09-18T00:39:09;17.30;99.90
52709;DHT22;38606;52.986;6.980;2023-09-18T00:41:36;16.80;99.90
52709;DHT22;38606;52.986;6.980;2023-09-18T00:44:01;17.20;99.90
52709;DHT22;38606;52.986;6.980;2023-09-18T00:46:28;17.10;99.90
52709;DHT22;38606;52.986;6.980;2023-09-18T00:48:54;17.00;99.90
52709;DHT22;38606;52.986;6.980;2023-09-18T00:51:20;17.00;99.90
52709;DHT22;38606;52.986;6.980;2023-09-18T00:53:47;17.20;99.90
52709;DHT22;38606;52.986;6.980;2023-09-18T00:56:14;17.50;99.90
52709;DHT22;38606;52.986;6.980;2023-09-18T00:58:41;17.40;99.90
52709;DHT22;38606;52.986;6.980;2023-09-18T01:01:06;17.30;99.90
52709;DHT22;38606;52.986;6.980;2023-09-18T01:03:34;17.30;99.90
52709;DHT22;38606;52.986;6.980;2023-09-18T01:06:00;17.10;99.90
52709;DHT22;38606;52.986;6.980;2023-09-18T01:08:26;17.40;99.90
52709;DHT22;38606;52.986;6.980;2023-09-18T01:11:14;17.30;99.90
52709;DHT22;38606;52.986;6.980;2023-09-18T01:13:54;17.30;99.90
52709;DHT22;38606;52.986;6.980;2023-09-18T01:16:32;17.40;99.90
52709;DHT22;38606;52.986;6.980;2023-09-18T01:19:00;17.40;99.90
52709;DHT22;38606;52.986;6.980;2023-09-18T01:21:28;17.30;99.90
52709;DHT22;38606;52.986;6.980;2023-09-18T01:23:54;17.40;99.90
52709;DHT22;38606;52.986;6.980;2023-09-18T01:26:19;17.40;99.90
52709;DHT22;38606;52.986;6.980;2023-09-18T01:28:45;17.70;99.90
52709;DHT22;38606;52.986;6.980;2023-09-18T01:31:11;17.60;99.90
52709;DHT22;38606;52.986;6.980;2023-09-18T01:33:37;17.40;99.90
52709;DHT22;38606;52.986;6.980;2023-09-18T01:36:06;17.70;99.90
52709;DHT22;38606;52.986;6.980;2023-09-18T01:38:33;17.60;99.90
52709;DHT22;38606;52.986;6.980;2023-09-18T01:40:59;17.50;99.90
52709;DHT22;38606;52.986;6.980;2023-09-18T01:43:26;16.30;99.90
52709;DHT22;38606;52.986;6.980;2023-09-18T01:45:52;17.80;99.90
52709;DHT22;38606;52.986;6.980;2023-09-18T01:48:18;17.60;99.90
52709;DHT22;38606;52.986;6.980;2023-09-18T01:50:44;17.60;99.90
52709;DHT22;38606;52.986;6.980;2023-09-18T01:53:10;17.50;99.90
52709;DHT22;38606;52.986;6.980;2023-09-18T01:55:35;17.70;99.90
52709;DHT22;38606;52.986;6.980;2023-09-18T01:58:01;17.40;99.90
52709;DHT22;38606;52.986;6.980;2023-09-18T02:00:28;17.60;99.90
52709;DHT22;38606;52.986;6.980;2023-09-18T02:02:53;17.40;99.90
52709;DHT22;38606;52.986;6.980;2023-09-18T02:05:19;17.30;99.90
52709;DHT22;38606;52.986;6.980;2023-09-18T02:07:45;17.50;99.90
52709;DHT22;38606;52.986;6.980;2023-09-18T02:10:10;17.60;99.90
52709;DHT22;38606;52.986;6.980;2023-09-18T02:12:38;17.70;99.90
52709;DHT22;38606;52.986;6.980;2023-09-18T02:15:06;17.60;99.90
52709;DHT22;38606;52.986;6.980;2023-09-18T02:17:32;17.40;99.90
52709;DHT22;38606;52.986;6.980;2023-09-18T02:19:58;17.50;99.90
52709;DHT22;38606;52.986;6.980;2023-09-18T02:22:26;17.30;99.90
52709;DHT22;38606;52.986;6.980;2023-09-18T02:24:52;17.20;99.90
52709;DHT22;38606;52.986;6.980;2023-09-18T02:27:17;17.40;99.90
52709;DHT22;38606;52.986;6.980;2023-09-18T02:29:44;17.40;99.90
52709;DHT22;38606;52.986;6.980;2023-09-18T02:32:10;17.60;99.90
52709;DHT22;38606;52.986;6.980;2023-09-18T02:34:35;17.40;99.90
52709;DHT22;38606;52.986;6.980;2023-09-18T02:37:01;17.40;99.90
52709;DHT22;38606;52.986;6.980;2023-09-18T02:39:27;17.50;99.90
52709;DHT22;38606;52.986;6.980;2023-09-18T02:41:52;17.60;99.90
52709;DHT22;38606;52.986;6.980;2023-09-18T02:44:18;17.60;99.90
52709;DHT22;38606;52.986;6.980;2023-09-18T02:46:44;17.50;99.90
52709;DHT22;38606;52.986;6.980;2023-09-18T02:49:09;17.60;99.90
52709;DHT22;38606;52.986;6.980;2023-09-18T02:51:35;17.70;99.90
52709;DHT22;38606;52.986;6.980;2023-09-18T02:54:01;17.50;99.90
52709;DHT22;38606;52.986;6.980;2023-09-18T02:56:26;17.70;99.90
52709;DHT22;38606;52.986;6.980;2023-09-18T02:58:52;17.60;99.90
52709;DHT22;38606;52.986;6.980;2023-09-18T03:01:18;17.70;99.90
52709;DHT22;38606;52.986;6.980;2023-09-18T03:03:43;17.60;99.90
52709;DHT22;38606;52.986;6.980;2023-09-18T03:06:09;17.60;99.90
52709;DHT22;38606;52.986;6.980;2023-09-18T03:08:35;17.60;99.90
52709;DHT22;38606;52.986;6.980;2023-09-18T03:11:01;17.60;99.90
52709;DHT22;38606;52.986;6.980;2023-09-18T03:13:27;17.40;99.90
52709;DHT22;38606;52.986;6.980;2023-09-18T03:15:54;17.70;99.90
52709;DHT22;38606;52.986;6.980;2023-09-18T03:18:20;17.60;99.90
52709;DHT22;38606;52.986;6.980;2023-09-18T03:20:45;17.60;99.90
52709;DHT22;38606;52.986;6.980;2023-09-18T03:23:11;17.60;99.90
52709;DHT22;38606;52.986;6.980;2023-09-18T03:25:37;17.60;99.90
52709;DHT22;38606;52.986;6.980;2023-09-18T03:28:03;17.70;99.90
52709;DHT22;38606;52.986;6.980;2023-09-18T03:30:29;17.60;99.90
52709;DHT22;38606;52.986;6.980;2023-09-18T03:32:54;17.50;99.90
52709;DHT22;38606;52.986;6.980;2023-09-18T03:35:20;17.60;99.90
52709;DHT22;38606;52.986;6.980;2023-09-18T03:37:47;17.50;99.90
52709;DHT22;38606;52.986;6.980;2023-09-18T03:40:14;17.80;99.90
52709;DHT22;38606;52.986;6.980;2023-09-18T03:42:40;17.50;99.90
52709;DHT22;38606;52.986;6.980;2023-09-18T03:45:06;17.70;99.90
52709;DHT22;38606;52.986;6.980;2023-09-18T03:47:37;17.90;99.90
52709;DHT22;38606;52.986;6.980;2023-09-18T03:50:11;17.70;99.90
52709;DHT22;38606;52.986;6.980;2023-09-18T03:52:38;17.60;99.90
52709;DHT22;38606;52.986;6.980;2023-09-18T03:55:05;17.80;99.90
52709;DHT22;38606;52.986;6.980;2023-09-18T03:57:30;17.50;99.90
52709;DHT22;38606;52.986;6.980;2023-09-18T03:59:56;17.60;99.90
52709;DHT22;38606;52.986;6.980;2023-09-18T04:02:24;18.00;99.90
52709;DHT22;38606;52.986;6.980;2023-09-18T04:04:50;17.70;99.90
52709;DHT22;38606;52.986;6.980;2023-09-18T04:07:16;17.80;99.90
52709;DHT22;38606;52.986;6.980;2023-09-18T04:09:42;17.60;99.90
52709;DHT22;38606;52.986;6.980;2023-09-18T04:12:08;17.90;99.90
52709;DHT22;38606;52.986;6.980;2023-09-18T04:14:35;18.00;99.90
52709;DHT22;38606;52.986;6.980;2023-09-18T04:17:01;17.50;99.90
52709;DHT22;38606;52.986;6.980;2023-09-18T04:19:27;17.90;99.90
52709;DHT22;38606;52.986;6.980;2023-09-18T04:21:53;17.80;99.90
52709;DHT22;38606;52.986;6.980;2023-09-18T04:24:19;17.60;99.90
52709;DHT22;38606;52.986;6.980;2023-09-18T04:26:44;17.60;99.90
52709;DHT22;38606;52.986;6.980;2023-09-18T04:29:10;17.50;99.90
52709;DHT22;38606;52.986;6.980;2023-09-18T04:31:36;17.60;99.90
52709;DHT22;38606;52.986;6.980;2023-09-18T04:34:01;17.70;99.90
52709;DHT22;38606;52.986;6.980;2023-09-18T04:36:28;17.80;99.90
52709;DHT22;38606;52.986;6.980;2023-09-18T04:38:54;17.70;99.90
52709;DHT22;38606;52.986;6.980;2023-09-18T04:41:20;17.60;99.90
52709;DHT22;38606;52.986;6.980;2023-09-18T04:43:46;17.90;99.90
52709;DHT22;38606;52.986;6.980;2023-09-18T04:46:11;17.70;99.90
52709;DHT22;38606;52.986;6.980;2023-09-18T04:48:38;17.70;99.90
52709;DHT22;38606;52.986;6.980;2023-09-18T04:51:03;17.80;99.90
52709;DHT22;38606;52.986;6.980;2023-09-18T04:53:30;17.90;99.90
52709;DHT22;38606;52.986;6.980;2023-09-18T04:55:56;18.00;99.90
52709;DHT22;38606;52.986;6.980;2023-09-18T04:58:22;17.70;99.90
52709;DHT22;38606;52.986;6.980;2023-09-18T05:00:58;17.90;99.90
52709;DHT22;38606;52.986;6.980;2023-09-18T05:03:24;17.80;99.90
52709;DHT22;38606;52.986;6.980;2023-09-18T05:05:52;17.90;99.90
52709;DHT22;38606;52.986;6.980;2023-09-18T05:08:18;17.80;99.90
52709;DHT22;38606;52.986;6.980;2023-09-18T05:10:43;18.20;99.90
52709;DHT22;38606;52.986;6.980;2023-09-18T05:13:10;17.90;99.90
52709;DHT22;38606;52.986;6.980;2023-09-18T05:15:36;18.10;99.90
52709;DHT22;38606;52.986;6.980;2023-09-18T05:18:03;18.00;99.90
52709;DHT22;38606;52.986;6.980;2023-09-18T05:20:30;18.00;99.90
52709;DHT22;38606;52.986;6.980;2023-09-18T05:22:57;18.00;99.90
52709;DHT22;38606;52.986;6.980;2023-09-18T05:25:25;18.50;99.90
52709;DHT22;38606;52.986;6.980;2023-09-18T05:27:52;18.10;99.90
52709;DHT22;38606;52.986;6.980;2023-09-18T05:30:24;17.90;99.90
52709;DHT22;38606;52.986;6.980;2023-09-18T05:32:50;17.90;99.90
52709;DHT22;38606;52.986;6.980;2023-09-18T05:35:16;18.10;99.90
52709;DHT22;38606;52.986;6.980;2023-09-18T05:37:42;18.20;99.90
52709;DHT22;38606;52.986;6.980;2023-09-18T05:40:10;18.30;99.90
52709;DHT22;38606;52.986;6.980;2023-09-18T05:42:37;18.00;99.90
52709;DHT22;38606;52.986;6.980;2023-09-18T05:45:04;18.00;99.90
52709;DHT22;38606;52.986;6.980;2023-09-18T05:47:32;18.00;99.90
52709;DHT22;38606;52.986;6.980;2023-09-18T05:49:58;18.20;99.90
52709;DHT22;38606;52.986;6.980;2023-09-18T05:52:24;18.00;99.90
52709;DHT22;38606;52.986;6.980;2023-09-18T05:54:51;18.40;99.90
52709;DHT22;38606;52.986;6.980;2023-09-18T05:57:17;18.40;99.90
52709;DHT22;38606;52.986;6.980;2023-09-18T05:59:43;18.50;99.90
52709;DHT22;38606;52.986;6.980;2023-09-18T06:02:11;18.10;99.90
52709;DHT22;38606;52.986;6.980;2023-09-18T06:04:36;18.30;99.90
52709;DHT22;38606;52.986;6.980;2023-09-18T06:07:05;18.30;99.90
52709;DHT22;38606;52.986;6.980;2023-09-18T06:09:31;18.50;99.90
52709;DHT22;38606;52.986;6.980;2023-09-18T06:11:57;18.20;99.90
52709;DHT22;38606;52.986;6.980;2023-09-18T06:14:25;18.70;99.90
52709;DHT22;38606;52.986;6.980;2023-09-18T06:16:50;18.50;99.90
52709;DHT22;38606;52.986;6.980;2023-09-18T06:19:16;18.60;99.90
52709;DHT22;38606;52.986;6.980;2023-09-18T06:21:45;18.50;99.90
52709;DHT22;38606;52.986;6.980;2023-09-18T06:24:10;18.50;99.90
52709;DHT22;38606;52.986;6.980;2023-09-18T06:26:37;18.70;99.90
52709;DHT22;38606;52.986;6.980;2023-09-18T06:29:02;18.70;99.90
52709;DHT22;38606;52.986;6.980;2023-09-18T06:31:28;18.80;99.90
52709;DHT22;38606;52.986;6.980;2023-09-18T06:33:56;19.10;99.90
52709;DHT22;38606;52.986;6.980;2023-09-18T06:36:22;19.00;99.90
52709;DHT22;38606;52.986;6.980;2023-09-18T06:38:48;18.80;99.90
52709;DHT22;38606;52.986;6.980;2023-09-18T06:41:14;19.10;99.90
52709;DHT22;38606;52.986;6.980;2023-09-18T06:43:39;19.00;99.90
52709;DHT22;38606;52.986;6.980;2023-09-18T06:46:07;19.00;99.90
52709;DHT22;38606;52.986;6.980;2023-09-18T06:48:33;19.10;99.90
52709;DHT22;38606;52.986;6.980;2023-09-18T06:50:59;19.20;99.90
52709;DHT22;38606;52.986;6.980;2023-09-18T06:53:28;19.20;99.90
52709;DHT22;38606;52.986;6.980;2023-09-18T06:55:55;19.10;99.90
52709;DHT22;38606;52.986;6.980;2023-09-18T06:58:21;18.90;99.90
52709;DHT22;38606;52.986;6.980;2023-09-18T07:00:47;18.80;99.90
52709;DHT22;38606;52.986;6.980;2023-09-18T07:03:16;19.40;99.90
52709;DHT22;38606;52.986;6.980;2023-09-18T07:05:43;19.00;99.90
52709;DHT22;38606;52.986;6.980;2023-09-18T07:08:09;19.10;99.90
52709;DHT22;38606;52.986;6.980;2023-09-18T07:10:38;19.40;99.90
52709;DHT22;38606;52.986;6.980;2023-09-18T07:13:04;19.10;99.90
52709;DHT22;38606;52.986;6.980;2023-09-18T07:15:29;20.70;99.90
52709;DHT22;38606;52.986;6.980;2023-09-18T07:17:55;19.30;99.90
52709;DHT22;38606;52.986;6.980;2023-09-18T07:20:21;19.10;99.90
52709;DHT22;38606;52.986;6.980;2023-09-18T07:22:48;19.10;99.90
52709;DHT22;38606;52.986;6.980;2023-09-18T07:25:14;19.20;99.90
52709;DHT22;38606;52.986;6.980;2023-09-18T07:27:40;19.20;99.90
52709;DHT22;38606;52.986;6.980;2023-09-18T07:30:10;19.30;99.90
52709;DHT22;38606;52.986;6.980;2023-09-18T07:32:37;19.30;99.90
52709;DHT22;38606;52.986;6.980;2023-09-18T07:35:03;19.10;99.90
52709;DHT22;38606;52.986;6.980;2023-09-18T07:37:30;19.20;99.90
52709;DHT22;38606;52.986;6.980;2023-09-18T07:39:56;17.00;99.90
52709;DHT22;38606;52.986;6.980;2023-09-18T07:42:26;19.40;99.90
52709;DHT22;38606;52.986;6.980;2023-09-18T07:44:53;19.60;99.90
52709;DHT22;38606;52.986;6.980;2023-09-18T07:47:19;19.40;99.90
52709;DHT22;38606;52.986;6.980;2023-09-18T07:49:45;19.30;99.90
52709;DHT22;38606;52.986;6.980;2023-09-18T07:52:11;19.40;99.90
52709;DHT22;38606;52.986;6.980;2023-09-18T07:54:36;19.40;99.90
52709;DHT22;38606;52.986;6.980;2023-09-18T07:57:02;19.20;99.90
52709;DHT22;38606;52.986;6.980;2023-09-18T07:59:28;19.40;99.90
52709;DHT22;38606;52.986;6.980;2023-09-18T08:01:54;19.50;99.90
52709;DHT22;38606;52.986;6.980;2023-09-18T08:04:20;19.60;99.90
52709;DHT22;38606;52.986;6.980;2023-09-18T08:06:46;19.50;99.90
52709;DHT22;38606;52.986;6.980;2023-09-18T08:09:13;19.80;99.90
52709;DHT22;38606;52.986;6.980;2023-09-18T08:11:42;19.80;99.90
52709;DHT22;38606;52.986;6.980;2023-09-18T08:14:11;19.90;99.90
52709;DHT22;38606;52.986;6.980;2023-09-18T08:16:40;19.70;99.90
52709;DHT22;38606;52.986;6.980;2023-09-18T08:19:05;19.90;99.90
52709;DHT22;38606;52.986;6.980;2023-09-18T08:21:32;19.80;99.90
52709;DHT22;38606;52.986;6.980;2023-09-18T08:23:58;20.40;99.90
52709;DHT22;38606;52.986;6.980;2023-09-18T08:26:24;22.10;99.90
52709;DHT22;38606;52.986;6.980;2023-09-18T08:28:54;20.10;99.90
52709;DHT22;38606;52.986;6.980;2023-09-18T08:31:20;20.30;99.90
52709;DHT22;38606;52.986;6.980;2023-09-18T08:33:45;20.10;99.90
52709;DHT22;38606;52.986;6.980;2023-09-18T08:36:11;20.20;99.90
52709;DHT22;38606;52.986;6.980;2023-09-18T08:38:37;20.30;99.90
52709;DHT22;38606;52.986;6.980;2023-09-18T08:41:02;20.50;99.90
52709;DHT22;38606;52.986;6.980;2023-09-18T08:43:29;20.20;99.90
52709;DHT22;38606;52.986;6.980;2023-09-18T08:45:57;20.20;99.90
52709;DHT22;38606;52.986;6.980;2023-09-18T08:48:28;20.30;99.90
52709;DHT22;38606;52.986;6.980;2023-09-18T08:51:01;20.10;99.90
52709;DHT22;38606;52.986;6.980;2023-09-18T08:53:33;20.30;99.90
52709;DHT22;38606;52.986;6.980;2023-09-18T08:55:59;20.10;99.90
52709;DHT22;38606;52.986;6.980;2023-09-18T08:58:36;20.20;99.90
52709;DHT22;38606;52.986;6.980;2023-09-18T09:01:06;20.00;99.90
52709;DHT22;38606;52.986;6.980;2023-09-18T09:03:44;20.30;99.90
52709;DHT22;38606;52.986;6.980;2023-09-18T09:06:12;20.30;99.90
52709;DHT22;38606;52.986;6.980;2023-09-18T09:08:38;20.00;99.90
52709;DHT22;38606;52.986;6.980;2023-09-18T09:11:05;20.10;99.90
52709;DHT22;38606;52.986;6.980;2023-09-18T09:13:31;20.10;99.90
52709;DHT22;38606;52.986;6.980;2023-09-18T09:15:58;20.30;99.90
52709;DHT22;38606;52.986;6.980;2023-09-18T09:18:25;20.20;99.90
52709;DHT22;38606;52.986;6.980;2023-09-18T09:20:59;20.40;99.90
52709;DHT22;38606;52.986;6.980;2023-09-18T09:23:27;20.40;99.90
52709;DHT22;38606;52.986;6.980;2023-09-18T09:25:54;20.30;99.90
52709;DHT22;38606;52.986;6.980;2023-09-18T09:28:30;20.50;99.90
52709;DHT22;38606;52.986;6.980;2023-09-18T09:31:03;20.30;99.90
52709;DHT22;38606;52.986;6.980;2023-09-18T09:33:30;20.70;99.90
52709;DHT22;38606;52.986;6.980;2023-09-18T09:35:57;20.50;99.90
52709;DHT22;38606;52.986;6.980;2023-09-18T09:38:33;20.70;99.90
52709;DHT22;38606;52.986;6.980;2023-09-18T09:41:02;20.50;99.90
52709;DHT22;38606;52.986;6.980;2023-09-18T09:43:31;20.50;99.90
52709;DHT22;38606;52.986;6.980;2023-09-18T09:45:58;20.70;99.90
52709;DHT22;38606;52.986;6.980;2023-09-18T09:48:25;20.50;99.90
52709;DHT22;38606;52.986;6.980;2023-09-18T09:50:51;20.60;99.90
52709;DHT22;38606;52.986;6.980;2023-09-18T09:53:18;20.50;99.90
52709;DHT22;38606;52.986;6.980;2023-09-18T09:55:44;20.80;99.90
52709;DHT22;38606;52.986;6.980;2023-09-18T09:58:11;20.40;99.90
52709;DHT22;38606;52.986;6.980;2023-09-18T10:00:58;21.10;99.90
52709;DHT22;38606;52.986;6.980;2023-09-18T10:03:28;20.80;99.90
52709;DHT22;38606;52.986;6.980;2023-09-18T10:05:56;21.00;99.90
52709;DHT22;38606;52.986;6.980;2023-09-18T10:08:24;21.20;99.90
52709;DHT22;38606;52.986;6.980;2023-09-18T10:11:02;21.20;99.90
52709;DHT22;38606;52.986;6.980;2023-09-18T10:16:05;21.40;99.90
52709;DHT22;38606;52.986;6.980;2023-09-18T10:21:38;21.30;99.90
52709;DHT22;38606;52.986;6.980;2023-09-18T10:26:59;21.40;99.90
52709;DHT22;38606;52.986;6.980;2023-09-18T10:29:26;21.40;99.90
52709;DHT22;38606;52.986;6.980;2023-09-18T10:31:53;21.50;99.90
52709;DHT22;38606;52.986;6.980;2023-09-18T10:34:22;21.80;99.90
52709;DHT22;38606;52.986;6.980;2023-09-18T10:36:51;21.90;99.90
52709;DHT22;38606;52.986;6.980;2023-09-18T10:39:17;21.70;99.90
52709;DHT22;38606;52.986;6.980;2023-09-18T10:41:52;21.60;99.90
52709;DHT22;38606;52.986;6.980;2023-09-18T10:44:18;22.00;99.90
52709;DHT22;38606;52.986;6.980;2023-09-18T10:46:51;22.10;99.90
52709;DHT22;38606;52.986;6.980;2023-09-18T10:49:21;22.20;99.90
52709;DHT22;38606;52.986;6.980;2023-09-18T10:51:48;22.20;99.90
52709;DHT22;38606;52.986;6.980;2023-09-18T10:54:21;22.10;99.90
52709;DHT22;38606;52.986;6.980;2023-09-18T10:56:47;22.10;99.90
52709;DHT22;38606;52.986;6.980;2023-09-18T10:59:15;22.10;99.90
52709;DHT22;38606;52.986;6.980;2023-09-18T11:01:42;22.10;99.90
52709;DHT22;38606;52.986;6.980;2023-09-18T11:04:08;22.10;99.90
52709;DHT22;38606;52.986;6.980;2023-09-18T11:09:24;22.60;99.90
52709;DHT22;38606;52.986;6.980;2023-09-18T11:12:10;22.70;99.90
52709;DHT22;38606;52.986;6.980;2023-09-18T11:22:31;22.80;99.90
52709;DHT22;38606;52.986;6.980;2023-09-18T11:28:29;22.90;99.90
52709;DHT22;38606;52.986;6.980;2023-09-18T11:30:57;23.00;99.90
52709;DHT22;38606;52.986;6.980;2023-09-18T11:33:53;23.10;99.90
52709;DHT22;38606;52.986;6.980;2023-09-18T11:38:58;22.80;99.90
52709;DHT22;38606;52.986;6.980;2023-09-18T11:41:31;23.00;99.90
52709;DHT22;38606;52.986;6.980;2023-09-18T11:46:48;23.00;99.90
52709;DHT22;38606;52.986;6.980;2023-09-18T11:49:22;22.80;99.90
52709;DHT22;38606;52.986;6.980;2023-09-18T11:51:50;22.70;99.90
52709;DHT22;38606;52.986;6.980;2023-09-18T11:54:16;22.80;99.90
52709;DHT22;38606;52.986;6.980;2023-09-18T11:56:43;22.90;99.90
52709;DHT22;38606;52.986;6.980;2023-09-18T11:59:09;22.80;99.90
52709;DHT22;38606;52.986;6.980;2023-09-18T12:01:36;23.00;99.90
52709;DHT22;38606;52.986;6.980;2023-09-18T12:04:05;23.00;99.90
52709;DHT22;38606;52.986;6.980;2023-09-18T12:06:35;23.10;99.90
52709;DHT22;38606;52.986;6.980;2023-09-18T12:09:02;23.20;99.90
52709;DHT22;38606;52.986;6.980;2023-09-18T12:11:29;23.10;99.90
52709;DHT22;38606;52.986;6.980;2023-09-18T12:13:55;23.00;99.90
52709;DHT22;38606;52.986;6.980;2023-09-18T12:16:21;23.20;99.90
52709;DHT22;38606;52.986;6.980;2023-09-18T12:18:48;23.20;99.90
52709;DHT22;38606;52.986;6.980;2023-09-18T12:21:15;23.20;99.90
52709;DHT22;38606;52.986;6.980;2023-09-18T12:23:44;22.90;99.90
52709;DHT22;38606;52.986;6.980;2023-09-18T12:26:12;23.20;99.90
52709;DHT22;38606;52.986;6.980;2023-09-18T12:28:44;23.00;99.90
52709;DHT22;38606;52.986;6.980;2023-09-18T12:31:14;23.20;99.90
52709;DHT22;38606;52.986;6.980;2023-09-18T12:33:41;23.10;99.90
52709;DHT22;38606;52.986;6.980;2023-09-18T12:36:09;23.40;99.90
52709;DHT22;38606;52.986;6.980;2023-09-18T12:38:36;23.30;99.90
52709;DHT22;38606;52.986;6.980;2023-09-18T12:41:03;23.20;99.90
52709;DHT22;38606;52.986;6.980;2023-09-18T12:43:40;23.30;99.90
52709;DHT22;38606;52.986;6.980;2023-09-18T12:46:10;23.30;99.90
52709;DHT22;38606;52.986;6.980;2023-09-18T12:48:40;23.20;99.90
52709;DHT22;38606;52.986;6.980;2023-09-18T12:51:11;22.80;99.90
52709;DHT22;38606;52.986;6.980;2023-09-18T12:53:37;22.70;99.90
52709;DHT22;38606;52.986;6.980;2023-09-18T12:56:13;22.70;99.90
52709;DHT22;38606;52.986;6.980;2023-09-18T12:58:42;22.40;99.90
52709;DHT22;38606;52.986;6.980;2023-09-18T13:01:09;22.50;99.90
52709;DHT22;38606;52.986;6.980;2023-09-18T13:03:45;22.00;99.90
52709;DHT22;38606;52.986;6.980;2023-09-18T13:06:18;22.10;99.90
52709;DHT22;38606;52.986;6.980;2023-09-18T13:08:45;22.10;99.90
52709;DHT22;38606;52.986;6.980;2023-09-18T13:11:11;22.10;99.90
52709;DHT22;38606;52.986;6.980;2023-09-18T13:13:37;22.10;99.90
52709;DHT22;38606;52.986;6.980;2023-09-18T13:16:09;21.80;99.90
52709;DHT22;38606;52.986;6.980;2023-09-18T13:18:36;21.80;99.90
52709;DHT22;38606;52.986;6.980;2023-09-18T13:21:13;21.90;99.90
52709;DHT22;38606;52.986;6.980;2023-09-18T13:23:39;21.60;99.90
52709;DHT22;38606;52.986;6.980;2023-09-18T13:26:06;20.20;99.90
52709;DHT22;38606;52.986;6.980;2023-09-18T13:28:36;22.00;99.90
52709;DHT22;38606;52.986;6.980;2023-09-18T13:31:03;21.70;99.90
52709;DHT22;38606;52.986;6.980;2023-09-18T13:33:33;21.80;99.90
52709;DHT22;38606;52.986;6.980;2023-09-18T13:35:59;21.70;99.90
52709;DHT22;38606;52.986;6.980;2023-09-18T13:38:25;21.70;99.90
52709;DHT22;38606;52.986;6.980;2023-09-18T13:40:53;21.80;99.90
52709;DHT22;38606;52.986;6.980;2023-09-18T13:43:20;22.00;99.90
52709;DHT22;38606;52.986;6.980;2023-09-18T13:45:48;21.80;99.90
52709;DHT22;38606;52.986;6.980;2023-09-18T13:48:17;22.10;99.90
52709;DHT22;38606;52.986;6.980;2023-09-18T13:50:43;22.00;99.90
52709;DHT22;38606;52.986;6.980;2023-09-18T13:53:09;22.00;99.90
52709;DHT22;38606;52.986;6.980;2023-09-18T13:55:35;22.00;99.90
52709;DHT22;38606;52.986;6.980;2023-09-18T13:58:01;21.90;99.90
52709;DHT22;38606;52.986;6.980;2023-09-18T14:00:30;22.30;99.90
52709;DHT22;38606;52.986;6.980;2023-09-18T14:02:56;22.30;99.90
52709;DHT22;38606;52.986;6.980;2023-09-18T14:05:22;22.20;99.90
52709;DHT22;38606;52.986;6.980;2023-09-18T14:07:48;22.00;99.90
52709;DHT22;38606;52.986;6.980;2023-09-18T14:10:14;22.30;99.90
52709;DHT22;38606;52.986;6.980;2023-09-18T14:12:41;22.40;99.90
52709;DHT22;38606;52.986;6.980;2023-09-18T14:15:08;22.30;99.90
52709;DHT22;38606;52.986;6.980;2023-09-18T14:17:34;22.30;99.90
52709;DHT22;38606;52.986;6.980;2023-09-18T14:20:00;22.30;99.90
52709;DHT22;38606;52.986;6.980;2023-09-18T14:22:26;22.00;99.90
52709;DHT22;38606;52.986;6.980;2023-09-18T14:24:52;22.60;99.90
52709;DHT22;38606;52.986;6.980;2023-09-18T14:27:18;22.10;99.90
52709;DHT22;38606;52.986;6.980;2023-09-18T14:29:43;21.90;99.90
52709;DHT22;38606;52.986;6.980;2023-09-18T14:32:10;21.30;99.90
52709;DHT22;38606;52.986;6.980;2023-09-18T14:34:37;22.00;99.90
52709;DHT22;38606;52.986;6.980;2023-09-18T14:37:03;22.40;99.90
52709;DHT22;38606;52.986;6.980;2023-09-18T14:39:32;22.10;99.90
52709;DHT22;38606;52.986;6.980;2023-09-18T14:41:58;22.20;99.90
52709;DHT22;38606;52.986;6.980;2023-09-18T14:44:25;22.20;99.90
52709;DHT22;38606;52.986;6.980;2023-09-18T14:46:51;21.80;99.90
52709;DHT22;38606;52.986;6.980;2023-09-18T14:49:18;21.90;99.90
52709;DHT22;38606;52.986;6.980;2023-09-18T14:51:44;21.90;99.90
52709;DHT22;38606;52.986;6.980;2023-09-18T14:54:09;21.70;99.90
52709;DHT22;38606;52.986;6.980;2023-09-18T14:56:36;21.80;99.90
52709;DHT22;38606;52.986;6.980;2023-09-18T14:59:03;22.10;99.90
52709;DHT22;38606;52.986;6.980;2023-09-18T15:01:28;21.90;99.90
52709;DHT22;38606;52.986;6.980;2023-09-18T15:03:54;21.90;99.90
52709;DHT22;38606;52.986;6.980;2023-09-18T15:06:20;22.00;99.90
52709;DHT22;38606;52.986;6.980;2023-09-18T15:08:46;22.20;99.90
52709;DHT22;38606;52.986;6.980;2023-09-18T15:11:13;22.30;99.90
52709;DHT22;38606;52.986;6.980;2023-09-18T15:13:42;21.80;99.90
52709;DHT22;38606;52.986;6.980;2023-09-18T15:16:08;21.90;99.90
52709;DHT22;38606;52.986;6.980;2023-09-18T15:18:34;22.20;99.90
52709;DHT22;38606;52.986;6.980;2023-09-18T15:21:01;22.00;99.90
52709;DHT22;38606;52.986;6.980;2023-09-18T15:23:27;22.00;99.90
52709;DHT22;38606;52.986;6.980;2023-09-18T15:25:55;22.00;99.90
52709;DHT22;38606;52.986;6.980;2023-09-18T15:28:24;22.00;99.90
52709;DHT22;38606;52.986;6.980;2023-09-18T15:30:52;22.30;99.90
52709;DHT22;38606;52.986;6.980;2023-09-18T15:33:19;22.10;99.90
52709;DHT22;38606;52.986;6.980;2023-09-18T15:35:48;22.20;99.90
52709;DHT22;38606;52.986;6.980;2023-09-18T15:38:14;22.00;99.90
52709;DHT22;38606;52.986;6.980;2023-09-18T15:40:40;22.00;99.90
52709;DHT22;38606;52.986;6.980;2023-09-18T15:43:05;22.00;99.90
52709;DHT22;38606;52.986;6.980;2023-09-18T15:45:32;22.80;99.90
52709;DHT22;38606;52.986;6.980;2023-09-18T15:48:01;21.90;99.90
52709;DHT22;38606;52.986;6.980;2023-09-18T15:50:27;21.80;99.90
52709;DHT22;38606;52.986;6.980;2023-09-18T15:52:52;21.80;99.90
52709;DHT22;38606;52.986;6.980;2023-09-18T15:55:18;21.50;99.90
52709;DHT22;38606;52.986;6.980;2023-09-18T15:57:44;21.80;99.90